createdAt,value
2022-09-02T00:01:27.959Z,2.19
2022-09-02T00:02:31.837Z,2.26
2022-09-02T00:03:37.043Z,2.31
2022-09-02T00:04:40.692Z,2.67
2022-09-02T00:05:44.853Z,2.56
2022-09-02T00:06:50.310Z,2.41
2022-09-02T00:07:55.721Z,2.80
2022-09-02T00:09:01.644Z,2.51
2022-09-02T00:10:06.224Z,2.34
2022-09-02T00:11:14.678Z,2.24
2022-09-02T00:12:19.398Z,2.77
2022-09-02T00:13:23.638Z,2.75
2022-09-02T00:14:35.133Z,2.51
2022-09-02T00:15:40.136Z,2.68
2022-09-02T00:16:45.919Z,2.61
2022-09-02T00:17:49.577Z,3.16
2022-09-02T00:18:57.988Z,2.64
2022-09-02T00:20:01.599Z,2.44
2022-09-02T00:21:05.878Z,3.11
2022-09-02T00:22:12.911Z,2.71
2022-09-02T00:23:17.965Z,2.90
2022-09-02T00:24:22.921Z,2.90
2022-09-02T00:25:28.232Z,3.09
2022-09-02T00:26:37.895Z,3.03
2022-09-02T00:29:03.188Z,2.91
2022-09-02T00:30:11.165Z,2.94
2022-09-02T00:31:16.260Z,2.71
2022-09-02T00:32:21.848Z,3.04
2022-09-02T00:33:26.471Z,2.85
2022-09-02T00:34:30.213Z,2.42
2022-09-02T00:35:35.718Z,3.05
2022-09-02T00:36:39.124Z,3.12
2022-09-02T00:37:42.685Z,2.74
2022-09-02T00:38:47.481Z,2.61
2022-09-02T00:39:53.563Z,2.89
2022-09-02T00:40:57.689Z,2.83
2022-09-02T00:42:01.079Z,3.09
2022-09-02T00:43:15.490Z,3.05
2022-09-02T00:44:22.365Z,2.98
2022-09-02T00:45:27.856Z,3.18
2022-09-02T00:46:34.500Z,2.82
2022-09-02T00:47:38.498Z,2.80
2022-09-02T00:48:49.278Z,2.81
2022-09-02T00:49:55.210Z,2.75
2022-09-02T00:51:06.819Z,2.65
2022-09-02T00:52:24.616Z,2.96
2022-09-02T00:53:29.406Z,2.99
2022-09-02T00:54:35.804Z,2.74
2022-09-02T00:55:45.933Z,2.53
2022-09-02T00:56:53.803Z,2.80
2022-09-02T00:58:02.090Z,2.61
2022-09-02T00:59:07.186Z,2.55
2022-09-02T01:00:18.118Z,2.25
2022-09-02T01:01:22.712Z,2.47
2022-09-02T01:02:30.872Z,2.58
2022-09-02T01:03:34.895Z,2.74
2022-09-02T01:04:39.029Z,2.97
2022-09-02T01:05:45.598Z,2.75
2022-09-02T01:06:49.587Z,2.34
2022-09-02T01:07:57.021Z,2.25
2022-09-02T01:09:05.866Z,2.62
2022-09-02T01:10:13.523Z,2.31
2022-09-02T01:11:19.866Z,2.04
2022-09-02T01:12:28.630Z,2.09
2022-09-02T01:13:37.250Z,2.01
2022-09-02T01:14:44.310Z,2.21
2022-09-02T01:15:52.573Z,1.95
2022-09-02T01:17:01.763Z,2.36
2022-09-02T01:18:08.233Z,2.00
2022-09-02T01:19:15.495Z,2.25
2022-09-02T01:20:25.665Z,1.93
2022-09-02T01:21:29.570Z,1.98
2022-09-02T01:22:34.014Z,2.17
2022-09-02T01:23:42.196Z,2.05
2022-09-02T01:24:46.873Z,1.91
2022-09-02T01:25:52.660Z,1.99
2022-09-02T01:27:00.181Z,2.31
2022-09-02T01:28:07.404Z,2.11
2022-09-02T01:29:11.329Z,2.01
2022-09-02T01:30:19.381Z,2.25
2022-09-02T01:31:23.312Z,2.07
2022-09-02T01:32:30.175Z,1.96
2022-09-02T01:33:35.539Z,1.95
2022-09-02T01:34:39.310Z,1.87
2022-09-02T01:35:42.977Z,1.94
2022-09-02T01:36:47.881Z,1.98
2022-09-02T01:37:56.097Z,2.07
2022-09-02T01:39:01.159Z,1.84
2022-09-02T01:40:07.240Z,1.94
2022-09-02T01:41:10.938Z,1.76
2022-09-02T01:42:16.481Z,2.11
2022-09-02T01:43:27.511Z,1.88
2022-09-02T01:44:31.186Z,1.93
2022-09-02T01:45:37.072Z,1.82
2022-09-02T01:46:40.564Z,2.07
2022-09-02T01:47:45.343Z,2.04
2022-09-02T01:48:49.238Z,1.92
2022-09-02T01:49:53.448Z,1.65
2022-09-02T01:51:01.574Z,1.78
2022-09-02T01:52:06.663Z,1.91
2022-09-02T01:53:11.207Z,1.62
2022-09-02T01:54:16.234Z,1.66
2022-09-02T01:55:20.819Z,1.97
2022-09-02T01:56:25.897Z,1.82
2022-09-02T01:57:30.886Z,1.59
2022-09-02T01:58:34.690Z,1.96
2022-09-02T01:59:41.521Z,1.78
2022-09-02T02:00:48.753Z,1.82
2022-09-02T02:01:58.716Z,1.86
2022-09-02T02:03:05.284Z,2.07
2022-09-02T02:04:13.671Z,1.98
2022-09-02T02:05:19.693Z,1.63
2022-09-02T02:06:24.929Z,1.89
2022-09-02T02:07:30.203Z,1.67
2022-09-02T02:08:35.360Z,1.70
2022-09-02T02:09:40.919Z,1.90
2022-09-02T02:10:45.856Z,1.70
2022-09-02T02:11:49.742Z,1.70
2022-09-02T02:12:53.778Z,2.00
2022-09-02T02:13:59.593Z,1.56
2022-09-02T02:15:12.081Z,1.78
2022-09-02T02:16:18.093Z,1.74
2022-09-02T02:17:21.833Z,1.71
2022-09-02T02:18:25.985Z,1.73
2022-09-02T02:19:30.244Z,1.84
2022-09-02T02:20:35.429Z,1.69
2022-09-02T02:21:38.904Z,1.94
2022-09-02T02:22:46.465Z,3.02
2022-09-02T02:23:50.196Z,1.88
2022-09-02T02:24:55.091Z,2.04
2022-09-02T02:25:58.890Z,1.97
2022-09-02T02:27:05.554Z,1.91
2022-09-02T02:28:09.224Z,1.81
2022-09-02T02:29:14.941Z,2.19
2022-09-02T02:30:20.430Z,2.00
2022-09-02T02:31:25.886Z,1.90
2022-09-02T02:32:29.787Z,1.73
2022-09-02T02:33:36.422Z,1.95
2022-09-02T02:34:40.181Z,1.75
2022-09-02T02:36:57.737Z,1.99
2022-09-02T02:38:02.935Z,1.72
2022-09-02T02:39:10.329Z,1.92
2022-09-02T02:40:16.440Z,2.03
2022-09-02T02:41:20.639Z,1.91
2022-09-02T02:42:23.609Z,1.62
2022-09-02T02:43:29.097Z,1.54
2022-09-02T02:44:33.667Z,2.05
2022-09-02T02:45:36.333Z,2.18
2022-09-02T02:46:41.661Z,1.86
2022-09-02T02:47:47.235Z,2.00
2022-09-02T02:48:52.087Z,2.03
2022-09-02T02:49:56.252Z,1.81
2022-09-02T02:50:59.849Z,2.19
2022-09-02T02:52:05.298Z,2.18
2022-09-02T02:53:13.412Z,2.32
2022-09-02T02:54:18.050Z,1.85
2022-09-02T02:55:23.336Z,1.95
2022-09-02T02:56:31.931Z,1.88
2022-09-02T02:57:39.822Z,1.96
2022-09-02T02:58:43.831Z,2.04
2022-09-02T02:59:50.666Z,1.77
2022-09-02T03:01:00.111Z,2.11
2022-09-02T03:02:06.858Z,1.92
2022-09-02T03:03:15.385Z,2.13
2022-09-02T03:04:21.302Z,2.21
2022-09-02T03:05:25.580Z,1.92
2022-09-02T03:06:29.392Z,2.32
2022-09-02T03:07:33.341Z,2.01
2022-09-02T03:08:39.167Z,2.38
2022-09-02T03:09:44.544Z,2.34
2022-09-02T03:10:52.581Z,2.72
2022-09-02T03:11:59.165Z,2.44
2022-09-02T03:13:04.186Z,2.49
2022-09-02T03:14:10.239Z,2.74
2022-09-02T03:15:18.077Z,2.64
2022-09-02T03:16:27.711Z,3.06
2022-09-02T03:17:35.451Z,2.69
2022-09-02T03:19:54.937Z,2.73
2022-09-02T03:21:01.225Z,2.86
2022-09-02T03:22:04.767Z,2.48
2022-09-02T03:23:09.948Z,2.52
2022-09-02T03:24:14.260Z,2.61
2022-09-02T03:25:21.020Z,2.36
2022-09-02T03:26:25.650Z,2.63
2022-09-02T03:27:28.772Z,2.55
2022-09-02T03:28:35.370Z,2.43
2022-09-02T03:29:39.225Z,2.36
2022-09-02T03:30:45.777Z,2.42
2022-09-02T03:31:53.207Z,2.42
2022-09-02T03:33:04.114Z,2.43
2022-09-02T03:34:09.338Z,2.36
2022-09-02T03:35:19.875Z,2.06
2022-09-02T03:36:27.202Z,2.17
2022-09-02T03:37:32.594Z,2.07
2022-09-02T03:38:40.188Z,2.63
2022-09-02T03:39:44.272Z,2.04
2022-09-02T03:40:51.441Z,2.34
2022-09-02T03:41:57.374Z,2.59
2022-09-02T03:43:03.176Z,2.06
2022-09-02T03:44:13.783Z,2.31
2022-09-02T03:45:19.404Z,2.23
2022-09-02T03:46:26.034Z,2.49
2022-09-02T03:47:30.560Z,2.76
2022-09-02T03:48:35.417Z,2.71
2022-09-02T03:49:39.409Z,2.32
2022-09-02T03:50:48.067Z,2.51
2022-09-02T03:53:01.210Z,2.69
2022-09-02T03:54:08.586Z,2.34
2022-09-02T03:55:21.102Z,3.11
2022-09-02T03:56:26.072Z,2.79
2022-09-02T03:57:30.272Z,2.38
2022-09-02T03:58:35.449Z,2.34
2022-09-02T03:59:41.250Z,2.21
2022-09-02T04:00:48.187Z,2.44
2022-09-02T04:01:52.330Z,2.54
2022-09-02T04:02:56.480Z,2.39
2022-09-02T04:04:01.655Z,2.42
2022-09-02T04:05:05.749Z,2.27
2022-09-02T04:06:14.002Z,2.62
2022-09-02T04:07:16.761Z,2.62
2022-09-02T04:08:20.718Z,2.62
2022-09-02T04:09:25.333Z,2.62
2022-09-02T04:10:28.860Z,2.56
2022-09-02T04:11:33.592Z,2.50
2022-09-02T04:12:39.281Z,2.52
2022-09-02T04:13:43.136Z,2.54
2022-09-02T04:14:57.464Z,2.83
2022-09-02T04:16:01.173Z,2.49
2022-09-02T04:17:07.449Z,2.19
2022-09-02T04:18:17.628Z,2.41
2022-09-02T04:19:22.716Z,2.58
2022-09-02T04:20:26.391Z,2.72
2022-09-02T04:21:36.154Z,2.73
2022-09-02T04:22:42.472Z,2.72
2022-09-02T04:23:46.821Z,2.89
2022-09-02T04:24:50.640Z,2.86
2022-09-02T04:25:55.704Z,2.79
2022-09-02T04:27:04.270Z,3.03
2022-09-02T04:28:08.052Z,2.53
2022-09-02T04:29:11.181Z,2.91
2022-09-02T04:30:18.359Z,3.06
2022-09-02T04:31:27.219Z,2.94
2022-09-02T04:32:34.850Z,3.16
2022-09-02T04:33:40.252Z,2.76
2022-09-02T04:34:45.345Z,2.77
2022-09-02T04:35:51.105Z,2.82
2022-09-02T04:36:55.243Z,2.49
2022-09-02T04:38:00.536Z,2.67
2022-09-02T04:39:07.019Z,2.76
2022-09-02T04:40:12.718Z,3.01
2022-09-02T04:41:22.056Z,2.98
2022-09-02T04:42:27.516Z,2.77
2022-09-02T04:43:31.581Z,2.77
2022-09-02T04:44:36.358Z,3.01
2022-09-02T04:45:42.478Z,2.86
2022-09-02T04:46:46.474Z,3.04
2022-09-02T04:47:53.215Z,2.98
2022-09-02T04:48:56.869Z,2.83
2022-09-02T04:50:00.173Z,2.68
2022-09-02T04:51:11.893Z,2.59
2022-09-02T04:52:17.831Z,2.18
2022-09-02T04:53:21.772Z,2.36
2022-09-02T04:54:26.211Z,2.21
2022-09-02T04:55:36.543Z,1.95
2022-09-02T04:56:42.457Z,2.33
2022-09-02T04:57:45.911Z,2.26
2022-09-02T04:58:51.257Z,2.02
2022-09-02T04:59:55.027Z,2.08
2022-09-02T05:00:59.257Z,2.35
2022-09-02T05:02:06.367Z,2.03
2022-09-02T05:03:13.713Z,2.16
2022-09-02T05:04:19.367Z,2.16
2022-09-02T05:05:25.179Z,2.49
2022-09-02T05:06:30.730Z,2.07
2022-09-02T05:07:40.883Z,2.11
2022-09-02T05:08:52.146Z,2.16
2022-09-02T05:09:58.697Z,2.17
2022-09-02T05:11:09.019Z,2.27
2022-09-02T05:12:12.759Z,2.56
2022-09-02T05:13:17.690Z,2.52
2022-09-02T05:14:29.595Z,2.63
2022-09-02T05:15:41.342Z,2.52
2022-09-02T05:16:47.395Z,2.26
2022-09-02T05:17:52.673Z,2.28
2022-09-02T05:18:58.050Z,2.79
2022-09-02T05:20:03.655Z,2.83
2022-09-02T05:21:09.045Z,4.32
2022-09-02T05:22:12.305Z,3.36
2022-09-02T05:23:17.880Z,3.47
2022-09-02T05:24:26.433Z,3.63
2022-09-02T05:25:28.698Z,3.00
2022-09-02T05:26:34.121Z,3.32
2022-09-02T05:27:40.309Z,2.75
2022-09-02T05:28:45.379Z,2.77
2022-09-02T05:29:53.779Z,3.01
2022-09-02T05:32:15.463Z,3.00
2022-09-02T05:33:19.732Z,2.91
2022-09-02T05:34:25.117Z,3.17
2022-09-02T05:35:30.459Z,2.58
2022-09-02T05:36:37.679Z,3.03
2022-09-02T05:37:41.441Z,3.80
2022-09-02T05:38:47.523Z,3.41
2022-09-02T05:39:51.865Z,3.35
2022-09-02T05:40:55.476Z,3.32
2022-09-02T05:42:00.929Z,4.03
2022-09-02T05:43:05.200Z,3.63
2022-09-02T05:44:08.918Z,3.16
2022-09-02T05:45:16.690Z,3.34
2022-09-02T05:46:31.689Z,3.26
2022-09-02T05:47:36.037Z,2.98
2022-09-02T05:48:58.793Z,2.64
2022-09-02T05:50:04.879Z,2.17
2022-09-02T05:51:10.616Z,1.86
2022-09-02T05:52:14.911Z,1.64
2022-09-02T05:53:21.028Z,1.63
2022-09-02T05:55:42.584Z,2.15
2022-09-02T05:56:48.774Z,1.72
2022-09-02T05:57:55.160Z,1.93
2022-09-02T05:59:01.863Z,1.74
2022-09-02T06:00:13.625Z,1.70
2022-09-02T06:01:18.210Z,1.93
2022-09-02T06:02:25.072Z,1.88
2022-09-02T06:03:28.827Z,2.07
2022-09-02T06:04:32.774Z,1.86
2022-09-02T06:05:38.683Z,1.66
2022-09-02T06:06:44.255Z,1.84
2022-09-02T06:07:53.758Z,1.84
2022-09-02T06:08:59.131Z,1.68
2022-09-02T06:10:05.928Z,2.11
2022-09-02T06:11:11.481Z,2.30
2022-09-02T06:12:20.736Z,2.22
2022-09-02T06:13:24.160Z,2.48
2022-09-02T06:14:31.477Z,1.87
2022-09-02T06:15:43.059Z,2.51
2022-09-02T06:16:49.527Z,2.19
2022-09-02T06:17:56.192Z,2.34
2022-09-02T06:19:03.109Z,2.43
2022-09-02T06:20:09.545Z,2.92
2022-09-02T06:21:16.492Z,2.66
2022-09-02T06:22:23.864Z,3.34
2022-09-02T06:23:27.785Z,3.30
2022-09-02T06:24:32.033Z,3.14
2022-09-02T06:25:43.927Z,3.26
2022-09-02T06:26:48.867Z,2.96
2022-09-02T06:27:52.557Z,2.82
2022-09-02T06:28:55.178Z,3.18
2022-09-02T06:29:58.653Z,3.08
2022-09-02T06:31:16.985Z,3.13
2022-09-02T06:32:21.021Z,3.33
2022-09-02T06:33:26.276Z,3.18
2022-09-02T06:34:32.839Z,3.53
2022-09-02T06:35:38.181Z,3.30
2022-09-02T06:36:45.030Z,3.60
2022-09-02T06:37:49.104Z,3.19
2022-09-02T06:38:54.873Z,3.19
2022-09-02T06:39:58.897Z,2.72
2022-09-02T06:41:03.550Z,2.63
2022-09-02T06:42:11.030Z,2.46
2022-09-02T06:43:19.549Z,2.89
2022-09-02T06:44:32.617Z,3.26
2022-09-02T06:45:42.676Z,2.47
2022-09-02T06:46:51.735Z,2.83
2022-09-02T06:47:56.129Z,3.14
2022-09-02T06:49:01.662Z,2.84
2022-09-02T06:50:07.062Z,2.76
2022-09-02T06:51:24.399Z,3.02
2022-09-02T06:52:30.305Z,2.84
2022-09-02T06:53:33.960Z,3.20
2022-09-02T06:54:37.231Z,3.23
2022-09-02T06:55:45.169Z,3.52
2022-09-02T06:56:49.995Z,3.51
2022-09-02T06:57:54.624Z,3.51
2022-09-02T06:59:00.228Z,3.35
2022-09-02T07:00:10.696Z,3.12
2022-09-02T07:01:23.153Z,3.04
2022-09-02T07:02:26.664Z,3.07
2022-09-02T07:03:53.460Z,2.77
2022-09-02T07:05:15.286Z,3.04
2022-09-02T07:06:24.284Z,3.13
2022-09-02T07:07:29.847Z,2.91
2022-09-02T07:08:36.354Z,2.86
2022-09-02T07:09:40.953Z,2.75
2022-09-02T07:10:47.439Z,2.56
2022-09-02T07:11:55.433Z,2.73
2022-09-02T07:12:59.877Z,2.46
2022-09-02T07:14:07.994Z,2.55
2022-09-02T07:15:13.700Z,2.43
2022-09-02T07:16:25.954Z,2.55
2022-09-02T07:17:24.984Z,2.21
2022-09-02T07:18:30.530Z,2.36
2022-09-02T07:19:33.998Z,2.44
2022-09-02T07:20:41.491Z,2.56
2022-09-02T07:21:48.862Z,2.97
2022-09-02T07:22:52.725Z,2.84
2022-09-02T07:24:03.161Z,3.06
2022-09-02T07:25:11.555Z,2.90
2022-09-02T07:26:16.982Z,3.20
2022-09-02T07:27:22.451Z,3.06
2022-09-02T07:28:29.254Z,3.12
2022-09-02T07:29:36.487Z,3.92
2022-09-02T07:30:45.609Z,4.09
2022-09-02T07:32:57.692Z,3.69
2022-09-02T07:34:13.873Z,3.50
2022-09-02T07:35:17.969Z,3.88
2022-09-02T07:36:31.665Z,3.56
2022-09-02T07:37:36.263Z,3.11
2022-09-02T07:38:41.726Z,2.99
2022-09-02T07:39:46.024Z,3.24
2022-09-02T07:40:50.991Z,3.33
2022-09-02T07:41:55.428Z,3.22
2022-09-02T07:42:59.387Z,3.48
2022-09-02T07:44:07.137Z,3.35
2022-09-02T07:45:12.892Z,3.51
2022-09-02T07:46:18.494Z,3.41
2022-09-02T07:47:24.107Z,3.03
2022-09-02T07:48:30.792Z,2.49
2022-09-02T07:50:15.451Z,3.06
2022-09-02T07:50:43.078Z,2.99
2022-09-02T07:51:49.960Z,2.89
2022-09-02T07:52:58.175Z,2.65
2022-09-02T07:54:07.226Z,2.38
2022-09-02T07:55:14.939Z,2.54
2022-09-02T07:56:17.580Z,2.84
2022-09-02T07:57:21.292Z,2.96
2022-09-02T07:58:27.424Z,3.36
2022-09-02T07:59:31.390Z,3.21
2022-09-02T08:25:36.680Z,4.93
2022-09-02T08:26:40.586Z,5.41
2022-09-02T08:27:44.617Z,5.02
2022-09-02T08:28:48.225Z,5.67
2022-09-02T08:29:51.838Z,5.85
2022-09-02T08:30:58.849Z,6.35
2022-09-02T08:32:02.879Z,5.67
2022-09-02T08:33:09.002Z,5.23
2022-09-02T08:34:12.954Z,5.64
2022-09-02T08:35:18.886Z,5.62
2022-09-02T08:36:24.818Z,5.61
2022-09-02T08:37:30.526Z,5.52
2022-09-02T08:38:35.292Z,5.73
2022-09-02T08:39:37.808Z,5.31
2022-09-02T08:40:46.253Z,5.43
2022-09-02T08:43:41.716Z,5.46
2022-09-02T08:44:48.021Z,5.63
2022-09-02T08:45:54.952Z,5.80
2022-09-02T08:47:02.310Z,6.17
2022-09-02T08:48:15.743Z,6.13
2022-09-02T08:49:34.068Z,6.61
2022-09-02T08:50:42.481Z,5.90
2022-09-02T08:51:53.156Z,6.86
2022-09-02T08:52:59.429Z,6.86
2022-09-02T08:54:12.149Z,7.13
2022-09-02T08:55:30.659Z,7.00
2022-09-02T08:56:35.735Z,6.24
2022-09-02T08:57:43.454Z,6.51
2022-09-02T08:58:56.347Z,6.31
2022-09-02T09:00:03.411Z,6.21
2022-09-02T09:02:47.530Z,6.64
2022-09-02T09:04:02.724Z,6.48
2022-09-02T09:05:23.925Z,5.62
2022-09-02T09:08:14.511Z,4.54
2022-09-02T09:09:46.751Z,4.47
2022-09-02T09:11:06.780Z,4.17
2022-09-02T09:12:19.419Z,4.04
2022-09-02T09:14:40.843Z,3.29
2022-09-02T09:16:04.837Z,3.24
2022-09-02T09:17:17.625Z,2.81
2022-09-02T09:18:27.316Z,2.88
2022-09-02T09:19:56.838Z,2.89
2022-09-02T09:21:01.295Z,2.72
2022-09-02T09:22:05.865Z,2.48
2022-09-02T09:23:26.120Z,2.03
2022-09-02T09:24:41.221Z,3.21
2022-09-02T09:25:48.598Z,3.52
2022-09-02T09:26:55.731Z,4.44
2022-09-02T09:28:01.169Z,3.97
2022-09-02T09:29:06.090Z,3.60
2022-09-02T09:30:15.008Z,3.38
2022-09-02T09:31:28.643Z,3.36
2022-09-02T09:32:42.279Z,3.30
2022-09-02T09:33:58.234Z,3.17
2022-09-02T09:36:20.606Z,3.06
2022-09-02T09:37:36.526Z,2.68
2022-09-02T09:38:40.462Z,3.06
2022-09-02T09:39:43.066Z,2.75
2022-09-02T09:40:49.383Z,2.62
2022-09-02T09:42:03.369Z,2.33
2022-09-02T09:43:14.685Z,1.73
2022-09-02T09:44:44.359Z,1.67
2022-09-02T09:45:52.703Z,1.79
2022-09-02T09:47:07.555Z,1.78
2022-09-02T09:48:24.028Z,1.71
2022-09-02T09:49:27.983Z,1.49
2022-09-02T09:50:33.338Z,1.47
2022-09-02T09:51:49.844Z,1.42
2022-09-02T09:52:44.591Z,1.51
2022-09-02T09:53:48.327Z,1.37
2022-09-02T09:55:12.655Z,1.55
2022-09-02T09:56:19.614Z,1.28
2022-09-02T09:57:23.918Z,1.24
2022-09-02T09:58:37.799Z,1.87
2022-09-02T09:59:46.204Z,1.85
2022-09-02T10:00:53.121Z,1.48
2022-09-02T10:02:00.387Z,1.41
2022-09-02T10:03:07.649Z,1.27
2022-09-02T10:04:42.977Z,1.17
2022-09-02T10:05:40.890Z,1.06
2022-09-02T10:06:45.385Z,1.26
2022-09-02T10:08:13.122Z,1.10
2022-09-02T10:09:22.769Z,1.24
2022-09-02T10:10:31.130Z,1.26
2022-09-02T10:11:40.297Z,1.35
2022-09-02T10:12:45.081Z,1.03
2022-09-02T10:13:50.229Z,1.34
2022-09-02T10:14:54.605Z,1.20
2022-09-02T10:16:25.053Z,1.44
2022-09-02T10:17:47.867Z,1.19
2022-09-02T10:18:57.205Z,1.09
2022-09-02T10:20:10.111Z,1.22
2022-09-02T10:21:40.817Z,1.04
2022-09-02T10:24:20.925Z,1.16
2022-09-02T10:25:35.612Z,1.06
2022-09-02T10:26:50.096Z,1.04
2022-09-02T10:28:22.970Z,1.18
2022-09-02T10:29:50.594Z,1.21
2022-09-02T10:31:06.072Z,1.29
2022-09-02T10:32:41.512Z,1.11
2022-09-02T10:34:16.180Z,1.04
2022-09-02T10:35:41.593Z,1.14
2022-09-02T10:37:05.422Z,1.10
2022-09-02T10:38:16.598Z,1.03
2022-09-02T10:39:41.120Z,1.23
2022-09-02T10:40:50.763Z,1.12
2022-09-02T10:41:58.125Z,1.07
2022-09-02T10:43:12.804Z,1.41
2022-09-02T10:44:34.307Z,1.09
2022-09-02T10:45:51.600Z,1.19
2022-09-02T10:47:06.263Z,1.19
2022-09-02T10:48:15.578Z,1.29
2022-09-02T10:49:49.756Z,1.33
2022-09-02T10:51:03.027Z,1.58
2022-09-02T10:52:25.237Z,1.58
2022-09-02T10:53:54.503Z,1.28
2022-09-02T10:55:16.006Z,1.41
2022-09-02T10:56:25.601Z,1.30
2022-09-02T10:57:32.907Z,1.46
2022-09-02T10:58:41.298Z,1.54
2022-09-02T10:59:53.104Z,1.76
2022-09-02T11:00:58.324Z,1.67
2022-09-02T11:02:24.306Z,1.38
2022-09-02T11:03:35.876Z,1.57
2022-09-02T11:04:46.980Z,1.42
2022-09-02T11:05:58.841Z,1.69
2022-09-02T11:07:06.085Z,1.79
2022-09-02T11:08:16.133Z,1.73
2022-09-02T11:09:50.973Z,1.76
2022-09-02T11:11:04.458Z,1.39
2022-09-02T11:12:17.156Z,1.71
2022-09-02T11:13:39.641Z,1.71
2022-09-02T11:14:49.906Z,1.71
2022-09-02T11:17:26.886Z,1.99
2022-09-02T11:18:48.915Z,1.76
2022-09-02T11:19:59.280Z,1.98
2022-09-02T11:21:12.423Z,1.85
2022-09-02T11:22:30.839Z,1.65
2022-09-02T11:23:42.097Z,1.61
2022-09-02T11:24:59.125Z,2.04
2022-09-02T11:26:22.398Z,2.08
2022-09-02T11:27:42.833Z,2.03
2022-09-02T11:28:59.006Z,2.02
2022-09-02T11:30:26.150Z,2.17
2022-09-02T11:31:55.861Z,2.21
2022-09-02T11:33:14.026Z,2.02
2022-09-02T11:34:38.747Z,2.26
2022-09-02T11:35:49.903Z,1.86
2022-09-02T11:36:55.060Z,1.96
2022-09-02T11:38:03.669Z,2.29
2022-09-02T11:40:38.872Z,2.25
2022-09-02T11:42:23.639Z,2.64
2022-09-02T11:43:47.600Z,2.22
2022-09-02T11:45:24.406Z,2.49
2022-09-02T11:47:02.321Z,2.74
2022-09-02T11:48:14.308Z,2.47
2022-09-02T11:49:43.682Z,2.84
2022-09-02T11:51:10.765Z,2.79
2022-09-02T11:52:33.144Z,2.33
2022-09-02T11:53:43.816Z,2.71
2022-09-02T11:54:54.061Z,2.77
2022-09-02T11:56:15.894Z,2.73
2022-09-02T11:57:24.206Z,2.84
2022-09-02T11:58:36.760Z,2.33
2022-09-02T11:59:59.140Z,2.47
2022-09-02T12:02:49.628Z,2.39
2022-09-02T12:04:55.964Z,2.64
2022-09-02T12:05:33.427Z,2.36
2022-09-02T12:06:36.554Z,2.83
2022-09-02T12:07:48.914Z,2.57
2022-09-02T12:10:11.411Z,3.04
2022-09-02T12:11:40.485Z,2.75
2022-09-02T12:12:51.812Z,2.64
2022-09-02T12:15:04.462Z,2.81
2022-09-02T12:16:21.321Z,3.03
2022-09-02T12:17:50.303Z,2.87
2022-09-02T12:19:01.094Z,2.93
2022-09-02T12:20:11.529Z,3.03
2022-09-02T12:21:18.797Z,3.11
2022-09-02T12:22:28.734Z,3.02
2022-09-02T12:23:59.140Z,3.18
2022-09-02T12:25:04.477Z,3.09
2022-09-02T12:26:15.320Z,2.86
2022-09-02T12:27:27.360Z,2.79
2022-09-02T12:28:32.294Z,2.67
2022-09-02T12:31:01.986Z,2.61
2022-09-02T12:32:06.738Z,2.79
2022-09-02T12:33:14.392Z,3.02
2022-09-02T12:34:32.466Z,3.59
2022-09-02T12:36:58.153Z,3.16
2022-09-02T12:38:21.213Z,3.68
2022-09-02T12:39:29.641Z,3.39
2022-09-02T12:42:07.642Z,3.21
2022-09-02T12:43:21.992Z,3.17
2022-09-02T12:44:32.568Z,3.54
2022-09-02T12:45:39.976Z,3.90
2022-09-02T12:46:50.147Z,3.61
2022-09-02T12:48:13.756Z,3.67
2022-09-02T12:49:37.198Z,3.39
2022-09-02T12:50:58.336Z,3.54
2022-09-02T12:52:08.077Z,3.71
2022-09-02T12:53:32.913Z,3.27
2022-09-02T12:54:49.734Z,3.56
2022-09-02T12:56:05.753Z,3.22
2022-09-02T12:57:12.851Z,3.35
2022-09-02T12:58:19.093Z,3.42
2022-09-02T12:59:35.158Z,3.46
2022-09-02T13:00:46.905Z,3.52
2022-09-02T13:02:05.099Z,3.59
2022-09-02T13:03:36.676Z,3.48
2022-09-02T13:05:00.601Z,3.38
2022-09-02T13:06:12.844Z,3.72
2022-09-02T13:07:41.043Z,3.58
2022-09-02T13:09:23.788Z,3.18
2022-09-02T13:10:37.362Z,3.61
2022-09-02T13:12:04.248Z,3.71
2022-09-02T13:13:23.904Z,3.10
2022-09-02T13:14:43.547Z,3.51
2022-09-02T13:41:33.152Z,4.07
2022-09-02T13:42:37.410Z,4.34
2022-09-02T13:43:43.033Z,4.02
2022-09-02T13:44:47.752Z,4.40
2022-09-02T13:45:54.751Z,4.06
2022-09-02T13:48:22.461Z,4.70
2022-09-02T13:49:32.723Z,4.81
2022-09-02T13:50:36.193Z,4.17
2022-09-02T13:51:42.030Z,4.60
2022-09-02T13:54:22.221Z,4.38
2022-09-02T13:55:06.874Z,4.40
2022-09-02T13:56:14.247Z,4.67
2022-09-02T13:57:30.658Z,4.56
2022-09-02T14:00:16.809Z,4.55
2022-09-02T14:01:41.265Z,4.31
2022-09-02T14:02:50.078Z,4.42
2022-09-02T14:03:56.322Z,4.81
2022-09-02T14:05:10.641Z,4.86
2022-09-02T14:06:17.697Z,4.69
2022-09-02T14:07:30.094Z,4.23
2022-09-02T14:08:34.122Z,4.25
2022-09-02T14:09:40.509Z,5.04
2022-09-02T14:10:45.888Z,4.72
2022-09-02T14:11:51.911Z,4.95
2022-09-02T14:13:02.703Z,5.05
2022-09-02T14:14:06.882Z,4.93
2022-09-02T14:15:13.951Z,5.47
2022-09-02T14:16:35.611Z,5.08
2022-09-02T14:17:40.241Z,5.33
2022-09-02T14:19:04.799Z,5.01
2022-09-02T14:20:23.423Z,5.50
2022-09-02T14:21:26.179Z,5.28
2022-09-02T14:22:30.917Z,5.52
2022-09-02T14:23:35.918Z,5.51
2022-09-02T14:24:43.894Z,6.07
2022-09-02T14:25:53.725Z,5.57
2022-09-02T14:27:00.386Z,5.66
2022-09-02T14:29:26.793Z,5.36
2022-09-02T14:30:38.344Z,5.97
2022-09-02T14:31:43.645Z,6.61
2022-09-02T14:32:47.248Z,7.55
2022-09-02T14:33:52.294Z,6.56
2022-09-02T14:35:20.294Z,7.62
2022-09-02T14:36:28.895Z,7.54
2022-09-02T14:37:32.543Z,7.32
2022-09-02T14:40:12.516Z,8.30
2022-09-02T14:41:29.648Z,7.50
2022-09-02T14:42:36.241Z,7.84
2022-09-02T14:43:50.763Z,8.10
2022-09-02T14:44:54.897Z,7.68
2022-09-02T14:46:02.569Z,8.05
2022-09-02T14:47:09.315Z,7.98
2022-09-02T14:48:19.193Z,7.89
2022-09-02T14:49:25.315Z,7.62
2022-09-02T14:50:37.088Z,7.73
2022-09-02T14:51:48.414Z,7.66
2022-09-02T14:52:55.806Z,8.98
2022-09-02T14:54:00.845Z,8.77
2022-09-02T14:55:08.922Z,8.46
2022-09-02T14:56:13.112Z,8.19
2022-09-02T14:57:32.880Z,8.01
2022-09-02T14:58:37.045Z,8.33
2022-09-02T14:59:43.394Z,8.28
2022-09-02T15:00:54.905Z,8.34
2022-09-02T15:01:59.951Z,8.01
2022-09-02T15:03:05.167Z,9.03
2022-09-02T15:04:11.658Z,8.39
2022-09-02T15:05:17.189Z,8.47
2022-09-02T15:06:20.607Z,8.39
2022-09-02T15:07:31.324Z,8.89
2022-09-02T15:09:40.267Z,7.88
2022-09-02T15:10:46.016Z,8.72
2022-09-02T15:11:53.698Z,8.58
2022-09-02T15:13:00.126Z,9.42
2022-09-02T15:14:04.097Z,9.28
2022-09-02T15:15:10.569Z,8.86
2022-09-02T15:16:13.531Z,9.12
2022-09-02T15:17:17.575Z,9.02
2022-09-02T15:18:21.310Z,9.14
2022-09-02T15:19:25.004Z,9.24
2022-09-02T15:20:29.510Z,8.61
2022-09-02T15:21:33.596Z,9.02
2022-09-02T15:22:36.973Z,9.33
2022-09-02T15:23:41.979Z,9.40
2022-09-02T15:25:58.669Z,9.88
2022-09-02T15:27:03.076Z,10.28
2022-09-02T15:28:06.999Z,10.67
2022-09-02T15:29:13.505Z,10.49
2022-09-02T15:30:17.209Z,10.45
2022-09-02T15:31:20.699Z,10.63
2022-09-02T15:32:27.516Z,9.94
2022-09-02T15:33:33.855Z,10.24
2022-09-02T15:34:37.333Z,10.78
2022-09-02T15:35:40.759Z,10.09
2022-09-02T15:36:46.136Z,10.51
2022-09-02T15:37:54.477Z,10.11
2022-09-02T15:38:59.654Z,10.58
2022-09-02T15:40:09.309Z,9.84
2022-09-02T15:41:22.203Z,10.77
2022-09-02T15:42:28.848Z,10.43
2022-09-02T15:43:36.420Z,10.67
2022-09-02T15:44:40.970Z,10.71
2022-09-02T15:47:01.940Z,10.13
2022-09-02T15:48:06.578Z,10.56
2022-09-02T15:49:14.647Z,10.11
2022-09-02T15:50:19.068Z,10.94
2022-09-02T15:51:25.234Z,10.58
2022-09-02T15:52:28.820Z,10.15
2022-09-02T15:53:32.387Z,11.06
2022-09-02T15:54:36.292Z,10.42
2022-09-02T15:55:42.549Z,9.65
2022-09-02T15:56:47.824Z,10.71
2022-09-02T15:57:53.958Z,9.87
2022-09-02T15:59:18.095Z,10.15
2022-09-02T16:00:22.539Z,10.33
2022-09-02T16:01:33.031Z,10.15
2022-09-02T16:02:35.671Z,10.97
2022-09-02T16:03:38.684Z,10.56
2022-09-02T16:04:43.383Z,10.69
2022-09-02T16:05:47.484Z,10.29
2022-09-02T16:06:54.881Z,10.36
2022-09-02T16:07:59.936Z,11.08
2022-09-02T16:09:03.583Z,10.51
2022-09-02T16:10:09.121Z,11.19
2022-09-02T16:11:13.394Z,10.74
2022-09-02T16:12:16.801Z,10.68
2022-09-02T16:13:21.221Z,10.89
2022-09-02T16:14:34.149Z,10.82
2022-09-02T16:15:37.202Z,10.97
2022-09-02T16:16:44.414Z,11.38
2022-09-02T16:17:49.120Z,11.39
2022-09-02T16:18:54.660Z,11.05
2022-09-02T16:19:58.320Z,11.20
2022-09-02T16:21:07.894Z,12.34
2022-09-02T16:22:11.633Z,12.10
2022-09-02T16:23:16.076Z,12.00
2022-09-02T16:24:21.246Z,11.71
2022-09-02T16:25:25.415Z,11.95
2022-09-02T16:26:36.898Z,12.52
2022-09-02T16:27:52.519Z,12.63
2022-09-02T16:29:05.388Z,12.06
2022-09-02T16:30:10.182Z,12.40
2022-09-02T16:31:23.669Z,13.52
2022-09-02T16:32:29.398Z,13.55
2022-09-02T16:33:33.513Z,13.40
2022-09-02T16:34:37.257Z,13.89
2022-09-02T16:35:41.044Z,13.64
2022-09-02T16:36:49.981Z,13.54
2022-09-02T16:37:54.474Z,13.17
2022-09-02T16:39:05.646Z,13.19
2022-09-02T16:40:12.134Z,13.67
2022-09-02T16:41:39.813Z,13.13
2022-09-02T16:42:46.870Z,13.78